Overview Statistics Trail Chart Weather Telemetry Raw packets
 

This is the latest recevied weather packets stored in our database for station/object HI3RRR-13. If no packets are shown the sender has not sent any weather packets the latest 10 day(s).

<< 34 35 36 37 38 39 40 >>
Time Temp. Humidity Pressure Rain* Wind** Luminosity Snow
1788125823 31.67° C 62% 1013 hPa 0 mm - - -
1788125223 31.67° C 62% 1012 hPa 0 mm - - -
1788124622 31.67° C 61% 1012 hPa 0 mm - - -
1788124022 32.22° C 59% 1012 hPa 0 mm - - -
1788123421 34.44° C 52% 1012 hPa 0 mm - - -
1788122820 34.44° C 52% 1012 hPa 0 mm - - -
1788122220 34.44° C 52% 1012 hPa 0 mm - - -
1788121619 33.89° C 52% 1013 hPa 0 mm - - -
1788121018 33.89° C 52% 1013 hPa 0.25 mm - - -
1788120417 33.89° C 52% 1013 hPa 0 mm - - -
1788119816 34.44° C 51% 1013 hPa 0 mm - - -
1788119214 34.44° C 51% 1013 hPa 0 mm - - -
1788118613 34.44° C 51% 1013 hPa 0 mm - - -
1788118012 34.44° C 51% 1013 hPa 0 mm - - -
1788117410 34.44° C 51% 1013 hPa 0 mm - - -
1788117275 34.44° C 51% 1013 hPa 0 mm - - -
1788116675 34.44° C 52% 1013 hPa 0 mm - - -
1788116074 34.44° C 52% 1013 hPa 0 mm - - -
1788115473 34.44° C 53% 1013 hPa 0 mm - - -
1788114873 34.44° C 53% 1013 hPa 0 mm - - -
1788114272 34.44° C 53% 1014 hPa 0 mm - - -
1788113671 34.44° C 54% 1014 hPa 0 mm - - -
1788113071 34.44° C 55% 1014 hPa 0 mm - - -
1788112470 32.22° C 60% 1014 hPa 0 mm - - -
1788111870 33.89° C 63% 1014 hPa 0 mm - - -

* Rain latest hour (hover to see other rain measurements)
** Current wind speed in m/s (hover to see current wind gust speed)